Time;durP1;ratioP1;P1;durP2;ratioP2;P2;SDS_P1;SDS_P2;PMS_P1;PMS_P2;Temp;Humidity;BMP_temperature;BMP_pressure;BME280_temperature;BME280_humidity;BME280_pressure;Samples;Min_cycle;Max_cycle;Signal;HPM_P1;HPM_P2
2023/07/07 00:00:38;;;;;;;2.40;1.40;;;;;;;;;;5037782;28;20048;-70
2023/07/07 00:03:04;;;;;;;2.92;1.48;;;;;;;;;;5038081;28;20484;-69
2023/07/07 00:05:30;;;;;;;3.47;1.73;;;;;;;;;;5044380;28;20021;-70
2023/07/07 00:07:57;;;;;;;2.50;1.55;;;;;;;;;;5039846;28;20091;-70
2023/07/07 00:10:23;;;;;;;2.88;1.80;;;;;;;;;;5040957;28;20028;-70
2023/07/07 00:12:51;;;;;;;4.38;1.67;;;;;;;;;;5033260;28;20540;-70
2023/07/07 00:15:17;;;;;;;2.00;1.20;;;;;;;;;;5040214;28;20031;-71
2023/07/07 00:17:47;;;;;;;2.15;1.10;;;;;;;;;;5038784;28;20033;-71
2023/07/07 00:20:14;;;;;;;2.65;1.50;;;;;;;;;;5040689;28;20429;-70
2023/07/07 00:22:40;;;;;;;3.72;1.50;;;;;;;;;;5042911;28;20029;-70
2023/07/07 00:25:07;;;;;;;3.90;1.95;;;;;;;;;;5042240;28;20017;-70
2023/07/07 00:27:33;;;;;;;3.40;1.60;;;;;;;;;;5036441;28;20032;-69
2023/07/07 00:29:59;;;;;;;5.38;1.60;;;;;;;;;;5041176;28;20088;-70
2023/07/07 00:32:25;;;;;;;3.97;2.00;;;;;;;;;;5037607;28;20029;-70
2023/07/07 00:34:51;;;;;;;6.40;1.85;;;;;;;;;;5039026;28;20983;-70
2023/07/07 00:37:17;;;;;;;7.07;1.75;;;;;;;;;;5040255;28;20034;-70
2023/07/07 00:39:43;;;;;;;6.63;2.15;;;;;;;;;;5039821;28;20034;-70
2023/07/07 00:42:10;;;;;;;2.75;1.98;;;;;;;;;;5037213;28;20037;-70
2023/07/07 00:44:55;;;;;;;4.60;1.60;;;;;;;;;;5039693;28;21872;-69
2023/07/07 00:47:21;;;;;;;4.90;1.70;;;;;;;;;;5038537;28;20036;-69
2023/07/07 00:49:47;;;;;;;2.97;1.83;;;;;;;;;;5033921;28;20186;-70
2023/07/07 00:52:13;;;;;;;10.90;2.40;;;;;;;;;;5037756;28;20025;-69
2023/07/07 00:54:39;;;;;;;2.88;1.65;;;;;;;;;;5037063;28;20038;-69
2023/07/07 00:57:05;;;;;;;9.48;1.88;;;;;;;;;;5034034;28;20033;-69
2023/07/07 00:59:36;;;;;;;3.47;2.10;;;;;;;;;;5038026;28;20075;-69
2023/07/07 01:02:06;;;;;;;4.18;1.98;;;;;;;;;;5037239;28;20502;-69
2023/07/07 01:04:33;;;;;;;9.68;2.13;;;;;;;;;;5033973;28;20025;-69
2023/07/07 01:07:03;;;;;;;4.50;2.15;;;;;;;;;;5034869;28;20033;-69
2023/07/07 01:09:29;;;;;;;3.20;1.92;;;;;;;;;;5035512;28;20041;-70
2023/07/07 01:11:55;;;;;;;3.65;1.80;;;;;;;;;;5035788;28;20040;-69
2023/07/07 01:14:23;;;;;;;6.20;2.63;;;;;;;;;;5040748;28;20024;-69
2023/07/07 01:16:49;;;;;;;6.40;1.85;;;;;;;;;;5035514;28;20096;-70
2023/07/07 01:19:33;;;;;;;5.97;2.08;;;;;;;;;;5036923;28;20124;-69
2023/07/07 01:22:27;;;;;;;4.80;2.83;;;13.40;99.90;;;;;;5034292;28;20508;-69
2023/07/07 01:25:12;;;;;;;5.38;2.10;;;;;;;;;;5036136;28;20029;-69
2023/07/07 01:27:53;;;;;;;4.50;2.50;;;;;;;;;;5034381;28;20087;-69
2023/07/07 01:30:31;;;;;;;6.40;2.17;;;;;;;;;;5033714;28;20029;-69
2023/07/07 01:32:57;;;;;;;4.57;2.53;;;;;;;;;;5041466;28;20057;-69
2023/07/07 01:35:24;;;;;;;4.00;2.40;;;;;;;;;;5034642;28;20084;-69
2023/07/07 01:37:51;;;;;;;2.30;1.85;;;;;;;;;;5034484;28;20029;-70
2023/07/07 01:40:17;;;;;;;5.43;2.58;;;;;;;;;;5044342;28;20044;-70
2023/07/07 01:42:53;;;;;;;3.97;2.40;;;;;;;;;;5034689;28;20044;-70
2023/07/07 01:45:19;;;;;;;5.07;2.40;;;;;;;;;;5035247;28;20032;-70
2023/07/07 01:47:52;;;;;;;9.18;2.58;;;;;;;;;;5034013;28;20033;-69
2023/07/07 01:50:22;;;;;;;4.38;2.63;;;;;;;;;;5034413;28;20033;-70
2023/07/07 01:52:57;;;;;;;3.90;2.60;;;;;;;;;;5037812;28;20071;-70
2023/07/07 01:55:31;;;;;;;5.22;3.00;;;;;;;;;;5035262;28;20505;-70
2023/07/07 01:58:00;;;;;;;7.00;3.28;;;;;;;;;;5038034;28;20057;-70
2023/07/07 02:00:27;;;;;;;7.55;2.83;;;;;;;;;;5033321;28;20045;-70
2023/07/07 02:02:55;;;;;;;8.45;3.13;;;;;;;;;;4998569;28;1305744;-70
2023/07/07 02:05:21;;;;;;;8.15;3.20;;;;;;;;;;5037740;28;20033;-70
2023/07/07 02:07:47;;;;;;;6.05;3.65;;;;;;;;;;5035426;28;20040;-71
2023/07/07 02:10:13;;;;;;;6.30;3.55;;;;;;;;;;5037335;28;20040;-70
2023/07/07 02:12:39;;;;;;;8.00;3.40;;;;;;;;;;5039625;28;20471;-69
2023/07/07 02:15:05;;;;;;;7.72;3.85;;;;;;;;;;5032667;28;20206;-70
2023/07/07 02:17:31;;;;;;;9.80;4.03;;;;;;;;;;5038223;28;20036;-69
2023/07/07 02:19:58;;;;;;;11.95;4.22;;;;;;;;;;5038009;28;20029;-70
2023/07/07 02:22:24;;;;;;;8.57;4.53;;;;;;;;;;5035729;28;20082;-70
2023/07/07 02:24:50;;;;;;;7.38;4.72;;;;;;;;;;5034525;28;20435;-70
2023/07/07 02:27:16;;;;;;;6.10;4.32;;;;;;;;;;5037218;28;20514;-70
2023/07/07 02:29:42;;;;;;;11.55;4.32;;;;;;;;;;5038831;28;20037;-69
2023/07/07 02:32:08;;;;;;;13.15;4.90;;;;;;;;;;5040564;28;20033;-69
2023/07/07 02:34:35;;;;;;;8.43;4.82;;;;;;;;;;5041747;28;20021;-71
2023/07/07 02:37:01;;;;;;;8.23;4.40;;;;;;;;;;5038510;28;20059;-69
2023/07/07 02:39:27;;;;;;;11.23;6.03;;;;;;;;;;5033025;28;20037;-70
2023/07/07 02:41:53;;;;;;;11.95;5.70;;;;;;;;;;5032970;28;20064;-70
2023/07/07 02:44:19;;;;;;;12.45;6.20;;;;;;;;;;5032781;28;20036;-70
2023/07/07 02:46:45;;;;;;;11.07;5.63;;;;;;;;;;5034166;28;20034;-70
2023/07/07 02:49:12;;;;;;;11.82;6.28;;;;;;;;;;5041008;28;21462;-69
2023/07/07 02:51:38;;;;;;;9.18;6.15;;;;;;;;;;5036905;28;20486;-68
2023/07/07 02:54:06;;;;;;;17.27;13.32;;;;;;;;;;5032848;28;20031;-74
2023/07/07 02:56:32;;;;;;;11.23;7.25;;;;;;;;;;5030269;28;20078;-74
2023/07/07 02:58:58;;;;;;;10.57;6.60;;;;;;;;;;5036473;28;20041;-74
2023/07/07 03:01:24;;;;;;;9.45;6.70;;;;;;;;;;5038193;28;20037;-74
2023/07/07 03:03:51;;;;;;;10.70;5.95;;;;;;;;;;5048128;28;20112;-74
2023/07/07 03:06:19;;;;;;;10.55;6.07;;;;;;;;;;5034776;28;20033;-74
2023/07/07 03:08:45;;;;;;;12.65;7.10;;;;;;;;;;5042402;28;20028;-70
2023/07/07 03:11:12;;;;;;;9.75;6.03;;;;;;;;;;5030733;28;20033;-70
2023/07/07 03:13:39;;;;;;;12.18;7.00;;;;;;;;;;5036225;28;20030;-72
2023/07/07 03:16:12;;;;;;;14.60;7.90;;;;;;;;;;5049318;28;20051;-71
2023/07/07 03:18:41;;;;;;;11.13;6.95;;;;;;;;;;5047856;28;20037;-70
2023/07/07 03:21:08;;;;;;;12.55;7.15;;;;;;;;;;5033965;28;20025;-72
2023/07/07 03:23:34;;;;;;;11.75;6.60;;;;;;;;;;5029737;28;20048;-71
2023/07/07 03:26:07;;;;;;;47.78;30.50;;;;;;;;;;5040502;28;20044;-75
2023/07/07 03:28:33;;;;;;;16.00;11.15;;;;;;;;;;5049340;28;20348;-74
2023/07/07 03:31:05;;;;;;;11.43;7.10;;;;;;;;;;5047573;28;20167;-75
2023/07/07 03:33:31;;;;;;;11.27;8.25;;;;;;;;;;5048556;28;20493;-74
2023/07/07 03:35:57;;;;;;;14.25;8.07;;;;;;;;;;5049135;28;20033;-74
2023/07/07 03:38:22;;;;;;;15.65;7.13;;;;;;;;;;5051235;28;20029;-75
2023/07/07 03:40:49;;;;;;;15.18;8.18;;;;;;;;;;5037589;28;20166;-70
2023/07/07 03:43:18;;;;;;;10.25;7.78;;;;;;;;;;5043261;28;20029;-71
2023/07/07 03:45:44;;;;;;;17.20;7.82;;;;;;;;;;5049457;28;20463;-71
2023/07/07 03:48:10;;;;;;;11.38;7.80;;;;;;;;;;5045117;28;20032;-71
2023/07/07 03:50:36;;;;;;;8.75;7.15;;;;;;;;;;5052947;28;20103;-72
2023/07/07 03:53:02;;;;;;;10.82;8.13;;;;;;;;;;5045116;28;20283;-71
2023/07/07 03:55:28;;;;;;;11.38;6.80;;;;;;;;;;5048637;28;20029;-72
2023/07/07 03:57:54;;;;;;;11.00;8.00;;;;;;;;;;5043559;28;20033;-70
2023/07/07 04:00:20;;;;;;;14.95;8.38;;;;;;;;;;5047374;28;20037;-71
2023/07/07 04:02:46;;;;;;;10.88;7.68;;;;;;;;;;5050645;28;20049;-71
2023/07/07 04:05:12;;;;;;;11.60;7.88;;;;;;;;;;5048888;28;20021;-71
2023/07/07 04:07:38;;;;;;;11.82;7.85;;;;;;;;;;5049243;28;20065;-72
2023/07/07 04:10:04;;;;;;;11.43;8.60;;;;;;;;;;5049274;28;20518;-72
2023/07/07 04:12:33;;;;;;;13.20;9.27;;;;;;;;;;5035769;28;20103;-71
2023/07/07 04:14:59;;;;;;;15.43;8.70;;;;;;;;;;5033180;28;20044;-71
2023/07/07 04:17:26;;;;;;;14.48;9.70;;;;;;;;;;5034103;28;20041;-70
2023/07/07 04:19:52;;;;;;;14.98;9.68;;;;;;;;;;5045846;28;20458;-72
2023/07/07 04:22:18;;;;;;;13.82;8.65;;;;;;;;;;5049117;28;20037;-71
2023/07/07 04:24:44;;;;;;;20.50;9.93;;;;;;;;;;5040651;28;20029;-70
2023/07/07 04:27:10;;;;;;;18.45;12.65;;;;;;;;;;5045914;28;20040;-72
2023/07/07 04:29:37;;;;;;;68.30;45.63;;;;;;;;;;5033022;28;20403;-71
2023/07/07 04:32:03;;;;;;;23.27;10.98;;;;;;;;;;5036303;28;20459;-70
2023/07/07 04:34:30;;;;;;;15.80;10.88;;;;;;;;;;5037508;28;20087;-71
2023/07/07 04:36:56;;;;;;;16.65;11.63;;;;;;;;;;5042905;28;20117;-70
2023/07/07 04:39:23;;;;;;;13.10;10.68;;;;;;;;;;5055672;28;20052;-70
2023/07/07 04:41:50;;;;;;;15.20;10.02;;;;;;;;;;5050606;28;20029;-70
2023/07/07 04:44:17;;;;;;;17.52;11.35;;;;;;;;;;5051291;28;20090;-71
2023/07/07 04:46:42;;;;;;;15.23;11.15;;;;;;;;;;5055772;28;20471;-70
2023/07/07 04:49:10;;;;;;;21.20;11.20;;;;;;;;;;5056591;28;20086;-69
2023/07/07 04:51:36;;;;;;;15.40;11.35;;;;;;;;;;5056545;28;20043;-70
2023/07/07 04:54:03;;;;;;;15.00;11.10;;;;;;;;;;5056802;28;20033;-70
2023/07/07 04:56:29;;;;;;;15.77;11.05;;;;;;;;;;5052074;28;20095;-71
2023/07/07 04:58:56;;;;;;;14.13;11.38;;;;;;;;;;5050250;28;20111;-70
2023/07/07 05:01:24;;;;;;;17.40;11.68;;;;;;;;;;5049395;28;20031;-70
2023/07/07 05:03:51;;;;;;;17.20;11.90;;;;;;;;;;5050567;28;20509;-69
2023/07/07 05:06:18;;;;;;;15.27;11.13;;;;;;;;;;5054694;28;20785;-70
2023/07/07 05:08:44;;;;;;;14.85;10.88;;;;;;;;;;5056902;28;20038;-70
2023/07/07 05:11:10;;;;;;;15.55;11.02;;;;;;;;;;5054785;28;20029;-70
2023/07/07 05:13:36;;;;;;;18.52;11.88;;;;;;;;;;5056491;28;20029;-70
2023/07/07 05:16:02;;;;;;;16.17;10.45;;;;;;;;;;5050640;28;20032;-70
2023/07/07 05:18:29;;;;;;;15.38;10.68;;;;;;;;;;5052491;28;20504;-70
2023/07/07 05:20:55;;;;;;;14.82;11.93;;;;;;;;;;5057823;28;20479;-70
2023/07/07 05:23:21;;;;;;;16.35;10.10;;;;;;;;;;5055297;28;20547;-70
2023/07/07 05:25:47;;;;;;;14.90;11.77;;;;;;;;;;5053275;28;20021;-70
2023/07/07 05:28:13;;;;;;;16.27;11.05;;;;;;;;;;5052423;28;20045;-71
2023/07/07 05:30:39;;;;;;;25.05;12.20;;;;;;;;;;5048115;28;20033;-70
2023/07/07 05:33:05;;;;;;;25.20;11.90;;;;;;;;;;5051426;28;20162;-72
2023/07/07 05:35:31;;;;;;;20.77;11.63;;;;;;;;;;5044912;28;20064;-71
2023/07/07 05:38:00;;;;;;;18.25;11.63;;;;;;;;;;5058165;28;20025;-70
2023/07/07 05:40:26;;;;;;;16.42;11.40;;;;;;;;;;5045605;28;20631;-70
2023/07/07 05:42:52;;;;;;;17.85;10.88;;;;;;;;;;5045054;28;21418;-71
2023/07/07 05:45:18;;;;;;;16.92;11.25;;;;;;;;;;5052825;28;20254;-71
2023/07/07 05:47:44;;;;;;;18.77;10.82;;;;;;;;;;5054935;28;20025;-70
2023/07/07 05:50:10;;;;;;;19.35;11.63;;;;;;;;;;5056680;28;20043;-70
2023/07/07 05:52:36;;;;;;;22.65;11.65;;;;;;;;;;5044189;28;20100;-71
2023/07/07 05:55:03;;;;;;;23.40;10.80;;;;;;;;;;5039469;28;20032;-70
2023/07/07 05:57:29;;;;;;;14.25;10.90;;;;;;;;;;5054918;28;20028;-71
2023/07/07 05:59:55;;;;;;;16.52;11.00;;;;;;;;;;5055060;28;20036;-71
2023/07/07 06:02:21;;;;;;;18.02;11.35;;;;;;;;;;5051970;28;20526;-71
2023/07/07 06:04:47;;;;;;;16.67;11.50;;;;;;;;;;5052575;28;20043;-71
2023/07/07 06:07:13;;;;;;;16.35;11.20;;;;;;;;;;5052439;28;20482;-71
2023/07/07 06:09:39;;;;;;;16.08;10.30;;;;;;;;;;5052105;28;20657;-72
2023/07/07 06:12:06;;;;;;;16.48;10.35;;;;;;;;;;5053451;28;20056;-71
2023/07/07 06:14:32;;;;;;;15.90;9.63;;;;;;;;;;5053092;28;20032;-71
2023/07/07 06:16:58;;;;;;;16.23;9.63;;;;;;;;;;5047637;28;20163;-71
2023/07/07 06:19:24;;;;;;;16.45;9.05;;;;;;;;;;5047954;28;20053;-71
2023/07/07 06:21:50;;;;;;;14.07;9.07;;;;;;;;;;5052375;28;20064;-72
2023/07/07 06:24:16;;;;;;;13.85;8.98;;;;;;;;;;5051328;28;20612;-71
2023/07/07 06:26:42;;;;;;;18.00;8.93;;;;;;;;;;5036462;28;20068;-71
2023/07/07 06:29:08;;;;;;;14.52;8.88;;;;;;;;;;5054963;28;20060;-71
2023/07/07 06:31:34;;;;;;;13.73;7.90;;;;;;;;;;5051474;28;20036;-71
2023/07/07 06:34:01;;;;;;;15.07;8.98;;;;;;;;;;5050719;28;20117;-72
2023/07/07 06:36:27;;;;;;;12.50;7.35;;;;;;;;;;5057563;28;20040;-71
2023/07/07 06:38:53;;;;;;;11.50;7.28;;;;;;;;;;5050119;28;20508;-72
2023/07/07 06:41:21;;;;;;;12.98;7.50;;;;;;;;;;5049529;28;20071;-71
2023/07/07 06:43:47;;;;;;;14.07;6.20;;;;;;;;;;5055301;28;20115;-72
2023/07/07 06:46:15;;;;;;;8.57;6.15;;;;;;;;;;5051025;28;20033;-71
2023/07/07 06:48:41;;;;;;;11.82;7.03;;;;;;;;;;5053066;28;20068;-71
2023/07/07 06:51:07;;;;;;;12.57;5.63;;;;;;;;;;5052742;28;20028;-71
2023/07/07 06:53:33;;;;;;;12.32;6.10;;;;;;;;;;5055239;28;20093;-71
2023/07/07 06:55:59;;;;;;;10.35;5.90;;;;;;;;;;5049185;28;20052;-72
2023/07/07 06:58:25;;;;;;;9.10;6.05;;;;;;;;;;5050843;28;20037;-72
2023/07/07 07:00:51;;;;;;;11.68;5.53;;;;;;;;;;5050453;28;20044;-72
2023/07/07 07:03:17;;;;;;;8.05;5.22;;;;;;;;;;5048528;28;20364;-72
2023/07/07 07:05:43;;;;;;;15.95;5.28;;;;;;;;;;5042935;28;20045;-73
2023/07/07 07:08:09;;;;;;;6.65;4.75;;;;;;;;;;5043728;28;20033;-73
2023/07/07 07:10:35;;;;;;;13.98;5.45;;;;;;;;;;5043684;28;20040;-73
2023/07/07 07:13:01;;;;;;;11.88;4.93;;;;;;;;;;5053127;28;20063;-73
2023/07/07 07:15:27;;;;;;;8.10;4.97;;;;;;;;;;5051380;28;22751;-73
2023/07/07 07:17:53;;;;;;;9.55;4.93;;;;;;;;;;5048025;28;20450;-73
2023/07/07 07:20:19;;;;;;;30.02;20.80;;;;;;;;;;5038314;28;20052;-71
2023/07/07 07:22:46;;;;;;;7.78;4.50;;;;;;;;;;5050093;28;20100;-70
2023/07/07 07:25:12;;;;;;;9.05;4.85;;;;;;;;;;5050634;28;20041;-70
2023/07/07 07:27:38;;;;;;;6.78;4.15;;;;;;;;;;5042385;28;20036;-71
2023/07/07 07:30:07;;;;;;;9.52;4.03;;;;;;;;;;5050617;28;20111;-71
2023/07/07 07:32:33;;;;;;;7.38;3.25;;;;;;;;;;5037379;28;20132;-71
2023/07/07 07:34:59;;;;;;;9.02;3.80;;;;;;;;;;5047696;28;20031;-73
2023/07/07 07:37:25;;;;;;;6.93;3.10;;;;;;;;;;5052151;28;20377;-72
2023/07/07 07:39:51;;;;;;;7.35;3.72;;;;;;;;;;5049748;28;20048;-73
2023/07/07 07:42:17;;;;;;;5.80;3.10;;;;;;;;;;5050028;28;20113;-74
2023/07/07 07:44:43;;;;;;;5.38;2.55;;;;;;;;;;5050737;28;20490;-74
2023/07/07 07:47:09;;;;;;;7.95;2.72;;;;;;;;;;5032255;28;20075;-74
2023/07/07 07:49:36;;;;;;;6.28;2.80;;;;;;;;;;5048576;28;20128;-75
2023/07/07 07:52:02;;;;;;;5.28;2.85;;;;;;;;;;5042714;28;20453;-76
2023/07/07 07:54:28;;;;;;;7.18;2.88;;;;;;;;;;5041028;28;21127;-75
2023/07/07 07:56:54;;;;;;;5.13;2.50;;;;;;;;;;5050313;28;20032;-75
2023/07/07 07:59:20;;;;;;;6.78;2.50;;;;;;;;;;5051032;28;20126;-75
2023/07/07 08:01:46;;;;;;;5.68;2.60;;;;;;;;;;5050860;28;20080;-74
2023/07/07 08:04:12;;;;;;;5.72;2.58;;;;;;;;;;5054609;28;20102;-75
2023/07/07 08:06:38;;;;;;;3.58;2.50;;;;;;;;;;5049371;28;20490;-75
2023/07/07 08:09:04;;;;;;;8.43;3.55;;;;;;;;;;5047651;28;20050;-75
2023/07/07 08:11:43;;;;;;;5.55;3.20;;;;;;;;;;5050049;28;20068;-72
2023/07/07 08:14:12;;;;;;;5.10;2.22;;;;;;;;;;5051850;28;20044;-72
2023/07/07 08:16:39;;;;;;;3.28;2.33;;;;;;;;;;5039528;28;20487;-73
2023/07/07 08:19:05;;;;;;;4.88;2.08;;;;;;;;;;5056652;28;20567;-73
2023/07/07 08:21:31;;;;;;;7.78;2.20;;;;;;;;;;5048328;28;20307;-72
2023/07/07 08:23:57;;;;;;;7.03;2.38;;;;;;;;;;5047477;28;20033;-72
2023/07/07 08:26:23;;;;;;;8.15;2.63;;;;;;;;;;5055360;28;20036;-73
2023/07/07 08:28:49;;;;;;;4.38;2.38;;;;;;;;;;5047665;28;20036;-73
2023/07/07 08:31:15;;;;;;;5.45;2.50;;;;;;;;;;5049773;28;20398;-72
2023/07/07 08:33:43;;;;;;;7.05;2.58;;;;;;;;;;5057353;28;20052;-73
2023/07/07 08:36:10;;;;;;;5.65;2.60;;;;;;;;;;5041910;28;20060;-73
2023/07/07 08:38:36;;;;;;;6.25;2.22;;;;;;;;;;5049954;28;20490;-73
2023/07/07 08:41:02;;;;;;;7.47;2.53;;;;;;;;;;5045369;28;20048;-72
2023/07/07 08:43:30;;;;;;;5.63;2.35;;;;;;;;;;5039500;28;20045;-73
2023/07/07 08:45:58;;;;;;;6.95;2.55;;;;;;;;;;5054927;28;20032;-73
2023/07/07 08:48:33;;;;;;;4.20;2.20;;;;;;;;;;5055865;28;20390;-73
2023/07/07 08:51:02;;;;;;;2.90;1.88;;;;;;;;;;5059264;28;20037;-73
2023/07/07 08:53:37;;;;;;;5.15;1.88;;;;;;;;;;5049726;28;20037;-73
2023/07/07 08:56:03;;;;;;;3.78;1.98;;;;;;;;;;5050926;28;20470;-73
2023/07/07 08:58:36;;;;;;;3.38;1.90;;;;;;;;;;5048506;28;20028;-73
2023/07/07 09:01:05;;;;;;;4.88;1.92;;;;;;;;;;5052885;28;20488;-73
2023/07/07 09:03:34;;;;;;;5.63;2.63;;;;;;;;;;5049863;28;20368;-72
2023/07/07 09:06:24;;;;;;;3.00;1.98;;;;;;;;;;5049877;28;20111;-73
2023/07/07 09:08:50;;;;;;;6.30;1.83;;;;;;;;;;5045757;28;20021;-73
2023/07/07 09:11:34;;;;;;;3.55;1.55;;;;;;;;;;5045219;28;20036;-73
2023/07/07 09:14:01;;;;;;;2.15;1.70;;;;;;;;;;5055155;28;20021;-73
2023/07/07 09:16:27;;;;;;;5.35;1.83;;;;;;;;;;5054222;28;20047;-73
2023/07/07 09:18:56;;;;;;;2.95;1.67;;;;;;;;;;5052645;28;20032;-73
2023/07/07 09:21:26;;;;;;;6.55;1.83;;;;;;;;;;5052069;28;20553;-73
2023/07/07 09:23:54;;;;;;;4.20;1.83;;;;;;;;;;5047029;28;20085;-73
2023/07/07 09:26:22;;;;;;;4.38;1.77;;;;;;;;;;5050224;28;20410;-73
2023/07/07 09:28:49;;;;;;;3.15;1.67;;;;;;;;;;5048970;28;20481;-72
2023/07/07 09:31:27;;;;;;;1.60;1.38;;;;;;;;;;5053193;28;20497;-73
2023/07/07 09:33:54;;;;;;;4.00;2.05;;;;;;;;;;5055142;28;20037;-73
2023/07/07 09:36:28;;;;;;;6.18;1.67;;;;;;;;;;5052232;28;20082;-73
2023/07/07 09:39:00;;;;;;;3.47;1.85;;;;;;;;;;5058043;28;20052;-72
2023/07/07 09:41:44;;;;;;;5.57;1.90;;;;;;;;;;5034209;28;20064;-75
2023/07/07 09:44:20;;;;;;;7.18;3.22;;;;;;;;;;5040875;28;20033;-72
2023/07/07 09:47:05;;;;;;;5.05;2.33;;;;;;;;;;5046121;28;20041;-72
2023/07/07 09:49:31;;;;;;;5.22;2.42;;;;;;;;;;5050604;28;20067;-71
2023/07/07 09:52:03;;;;;;;6.97;1.90;;;;;;;;;;5051673;28;20477;-74
2023/07/07 09:54:31;;;;;;;2.85;1.70;;;;;;;;;;5044827;28;20052;-76
2023/07/07 09:56:59;;;;;;;3.08;1.55;;;;;;;;;;5046925;28;20081;-77
2023/07/07 09:59:31;;;;;;;2.90;1.73;;;;;;;;;;5047912;28;20120;-77
2023/07/07 10:01:57;;;;;;;2.22;1.77;;;;;;;;;;5041396;28;20036;-78
2023/07/07 10:04:24;;;;;;;3.38;1.77;;;;;;;;;;5050670;28;20161;-77
2023/07/07 10:06:50;;;;;;;3.35;1.80;;;;;;;;;;5053736;28;20128;-79
2023/07/07 10:09:16;;;;;;;3.97;1.90;;;;;;;;;;5051466;28;20032;-79
2023/07/07 10:11:44;;;;;;;6.28;1.88;;;;;;;;;;5041198;28;20033;-78
2023/07/07 10:14:12;;;;;;;4.15;1.67;;;;;;;;;;5053703;28;20024;-76
2023/07/07 10:16:53;;;;;;;4.50;1.73;;;;;;;;;;5067423;28;20456;-75
2023/07/07 10:19:19;;;;;;;;;;;;;;;;;;5054270;28;20052;-74
2023/07/07 10:21:45;;;;;;;2.75;1.73;;;;;;;;;;5053163;28;19909;-75
2023/07/07 10:24:12;;;;;;;3.70;1.70;;;;;;;;;;5052620;28;20052;-75
2023/07/07 10:26:39;;;;;;;6.75;2.10;;;;;;;;;;5054374;28;20058;-75
2023/07/07 10:29:05;;;;;;;4.13;1.65;;;;;;;;;;5049818;28;20039;-74
2023/07/07 10:31:31;;;;;;;3.13;1.40;;;;;;;;;;5051238;28;20219;-75
2023/07/07 10:34:00;;;;;;;3.63;1.75;;;;;;;;;;5052966;28;20151;-76
2023/07/07 10:36:33;;;;;;;6.93;3.40;;;;;;;;;;5052821;28;20085;-75
2023/07/07 10:38:59;;;;;;;4.43;1.88;;;;;;;;;;5049980;28;20371;-75
2023/07/07 10:41:28;;;;;;;3.17;1.75;;;;;;;;;;5050151;28;20036;-73
2023/07/07 10:43:55;;;;;;;3.72;2.03;;;;;;;;;;5050902;28;20044;-75
2023/07/07 10:46:21;;;;;;;3.45;1.95;;;;;;;;;;5045928;28;20102;-74
2023/07/07 10:48:47;;;;;;;2.38;1.65;;;;;;;;;;5046103;28;20259;-74
2023/07/07 10:51:32;;;;;;;5.85;2.25;;;;;;;;;;5047780;28;20470;-74
2023/07/07 10:54:07;;;;;;;2.67;1.70;;;;;;;;;;5051185;28;20072;-74
2023/07/07 10:56:41;;;;;;;2.83;1.67;;;;;;;;;;5046269;28;20037;-75
2023/07/07 10:59:16;;;;;;;3.97;1.80;;;;;;;;;;5053975;28;20295;-75
2023/07/07 11:01:44;;;;;;;4.45;1.90;;;;;;;;;;5041386;28;20041;-75
2023/07/07 11:04:19;;;;;;;2.60;1.88;;;;;;;;;;5030818;28;20049;-75
2023/07/07 11:06:52;;;;;;;3.88;1.65;;;;;;;;;;5040288;28;20116;-75
2023/07/07 11:09:21;;;;;;;4.38;1.80;;;;;;;;;;5048552;28;20037;-75
2023/07/07 11:11:47;;;;;;;3.20;1.65;;;;;;;;;;5045615;28;20510;-75
2023/07/07 11:14:25;;;;;;;5.47;1.80;;;;;;;;;;5037630;28;20104;-75
2023/07/07 11:17:23;;;;;;;4.32;1.80;;;33.10;99.90;;;;;;5041155;28;20123;-74
2023/07/07 11:19:49;;;;;;;2.65;1.58;;;;;;;;;;5031470;28;20092;-74
2023/07/07 11:22:15;;;;;;;4.43;1.80;;;;;;;;;;5044698;28;20017;-74
2023/07/07 11:24:43;;;;;;;2.95;1.88;;;;;;;;;;5036436;28;20467;-74
2023/07/07 11:27:26;;;;;;;1.95;1.63;;;;;;;;;;5034777;28;20149;-74
2023/07/07 11:30:10;;;;;;;5.25;2.33;;;;;;;;;;5041015;28;20423;-74
2023/07/07 11:33:01;;;;;;;5.25;2.13;;;;;;;;;;5039004;28;20586;-75
2023/07/07 11:35:33;;;;;;;7.32;1.90;;;;;;;;;;5050280;28;20056;-74
2023/07/07 11:38:28;;;;;;;4.55;1.83;;;32.70;99.90;;;;;;5047315;28;20490;-74
2023/07/07 11:40:56;;;;;;;6.93;1.67;;;;;;;;;;5046313;28;20053;-74
2023/07/07 11:43:32;;;;;;;2.55;1.70;;;;;;;;;;5048402;28;20028;-74
2023/07/07 11:46:25;;;;;;;3.67;1.80;;;;;;;;;;5036876;28;20518;-73
2023/07/07 11:49:20;;;;;;;4.30;1.92;;;;;;;;;;5030599;28;20033;-74
2023/07/07 11:51:49;;;;;;;2.30;1.80;;;;;;;;;;5049669;28;20045;-74
2023/07/07 11:54:15;;;;;;;4.40;1.90;;;;;;;;;;5051886;28;20024;-74
2023/07/07 11:56:41;;;;;;;2.13;1.73;;;;;;;;;;5044513;28;20048;-74
2023/07/07 11:59:22;;;;;;;5.57;1.98;;;;;;;;;;5039449;28;20445;-74
2023/07/07 12:01:50;;;;;;;2.15;1.70;;;;;;;;;;5042468;28;20021;-74
2023/07/07 12:04:20;;;;;;;4.22;2.20;;;;;;;;;;5053806;28;20085;-74
2023/07/07 12:06:49;;;;;;;2.97;1.67;;;;;;;;;;5038296;28;20025;-74
2023/07/07 12:09:24;;;;;;;2.88;1.80;;;;;;;;;;5052020;28;20044;-74
2023/07/07 12:11:52;;;;;;;4.00;2.08;;;;;;;;;;5053393;28;20072;-74
2023/07/07 12:14:27;;;;;;;3.72;2.25;;;;;;;;;;5054113;28;20029;-74
2023/07/07 12:16:55;;;;;;;6.13;1.80;;;;;;;;;;5052936;28;20031;-71
2023/07/07 12:19:34;;;;;;;2.97;1.77;;;;;;;;;;5052263;28;20094;-73
2023/07/07 12:22:02;;;;;;;2.60;2.13;;;;;;;;;;5052172;28;20386;-73
2023/07/07 12:24:38;;;;;;;3.15;1.85;;;;;;;;;;5044894;28;20387;-73
2023/07/07 12:27:26;;;;;;;8.52;2.25;;;;;;;;;;5052770;28;20112;-73
2023/07/07 12:29:53;;;;;;;7.68;2.03;;;;;;;;;;5051892;28;20044;-73
2023/07/07 12:32:19;;;;;;;2.30;1.65;;;;;;;;;;5053209;28;20063;-74
2023/07/07 12:34:49;;;;;;;3.58;2.03;;;;;;;;;;5052498;28;20033;-74
2023/07/07 12:37:17;;;;;;;4.45;1.90;;;;;;;;;;5053823;28;20316;-73
2023/07/07 12:39:54;;;;;;;3.65;2.13;;;;;;;;;;5065341;28;20037;-73
2023/07/07 12:42:20;;;;;;;5.55;2.35;;;;;;;;;;5053494;28;20135;-74
2023/07/07 12:44:46;;;;;;;1.95;1.63;;;;;;;;;;5052586;28;20027;-74
2023/07/07 12:47:24;;;;;;;3.58;2.08;;;;;;;;;;5053578;28;20110;-74
2023/07/07 12:49:58;;;;;;;2.22;1.92;;;;;;;;;;5053905;28;20029;-74
2023/07/07 12:52:24;;;;;;;4.15;2.10;;;;;;;;;;5051896;28;20561;-74
2023/07/07 12:54:52;;;;;;;3.85;2.22;;;;;;;;;;5045516;28;20021;-74
2023/07/07 12:57:18;;;;;;;2.83;1.77;;;;;;;;;;5047655;28;20053;-74
2023/07/07 12:59:44;;;;;;;5.53;1.88;;;;;;;;;;5065480;28;20076;-74
2023/07/07 13:02:17;;;;;;;6.10;2.10;;;;;;;;;;5049114;28;20466;-74
2023/07/07 13:04:48;;;;;;;3.75;2.20;;;;;;;;;;5033059;28;20080;-74
2023/07/07 13:07:19;;;;;;;5.03;2.38;;;;;;;;;;5039441;28;20025;-74
2023/07/07 13:09:50;;;;;;;3.55;2.10;;;;;;;;;;5049727;28;20025;-74
2023/07/07 13:12:37;;;;;;;5.00;2.22;;;32.30;99.90;;;;;;5052418;28;20020;-74
2023/07/07 13:15:06;;;;;;;3.28;2.05;;;;;;;;;;5041205;28;20037;-75
2023/07/07 13:17:33;;;;;;;3.92;1.92;;;;;;;;;;5039553;28;20394;-74
2023/07/07 13:20:01;;;;;;;2.67;1.80;;;;;;;;;;5049163;28;20710;-75
2023/07/07 13:22:30;;;;;;;5.50;2.15;;;;;;;;;;5064054;28;20201;-73
2023/07/07 13:24:57;;;;;;;124.05;101.40;;;;;;;;;;5047959;28;20104;-75
2023/07/07 13:27:24;;;;;;;7.80;3.45;;;;;;;;;;5049335;28;20325;-76
2023/07/07 13:30:00;;;;;;;3.28;2.58;;;;;;;;;;5039706;28;20033;-75
2023/07/07 13:32:26;;;;;;;5.05;2.22;;;;;;;;;;5066165;28;20028;-74
2023/07/07 13:34:52;;;;;;;3.60;2.17;;;;;;;;;;5053132;28;20044;-74
2023/07/07 13:37:18;;;;;;;4.20;1.95;;;;;;;;;;5062684;28;20030;-74
2023/07/07 13:39:44;;;;;;;2.60;2.00;;;;;;;;;;5053425;28;20547;-75
2023/07/07 13:42:20;;;;;;;3.88;2.10;;;;;;;;;;5049673;28;20021;-77
2023/07/07 13:44:46;;;;;;;3.25;2.10;;;;;;;;;;5042241;28;20362;-75
2023/07/07 13:47:14;;;;;;;4.00;1.80;;;;;;;;;;5045383;28;20112;-78
2023/07/07 13:49:40;;;;;;;4.72;3.35;;;;;;;;;;5054912;28;20495;-81
2023/07/07 13:52:14;;;;;;;5.30;3.90;;;;;;;;;;5049232;28;20028;-78
2023/07/07 13:54:40;;;;;;;2.78;2.05;;;;;;;;;;5055563;28;20074;-77
2023/07/07 13:57:08;;;;;;;5.60;2.20;;;;;;;;;;5052857;28;20061;-76
2023/07/07 13:59:34;;;;;;;3.15;2.00;;;;;;;;;;5039765;28;20028;-81
2023/07/07 14:02:01;;;;;;;2.70;1.90;;;;;;;;;;5056338;28;20020;-81
2023/07/07 14:04:32;;;;;;;5.50;2.13;;;;;;;;;;5047064;28;20053;-79
2023/07/07 14:06:58;;;;;;;3.47;1.92;;;;;;;;;;5054642;28;20032;-81
2023/07/07 14:09:38;;;;;;;3.38;1.88;;;;;;;;;;5057540;28;20023;-78
2023/07/07 14:12:09;;;;;;;10.00;7.35;;;;;;;;;;5050960;28;20029;-81
2023/07/07 14:14:35;;;;;;;8.35;3.92;;;;;;;;;;5049582;28;20028;-78
2023/07/07 14:17:03;;;;;;;4.07;2.28;;;;;;;;;;5052478;28;20053;-79
2023/07/07 14:19:41;;;;;;;5.68;2.30;;;;;;;;;;5046106;28;20041;-72
2023/07/07 14:22:08;;;;;;;7.38;2.00;;;;;;;;;;5046779;28;20065;-72
2023/07/07 14:24:36;;;;;;;3.30;2.10;;;;;;;;;;5047965;28;20033;-72
2023/07/07 14:27:02;;;;;;;2.90;1.63;;;;;;;;;;5051435;28;20537;-73
2023/07/07 14:29:37;;;;;;;3.65;2.03;;;;;;;;;;5050336;28;20053;-73
2023/07/07 14:32:04;;;;;;;3.28;2.60;;;;;;;;;;5046815;28;20100;-72
2023/07/07 14:34:30;;;;;;;4.68;2.35;;;;;;;;;;5050798;28;20032;-72
2023/07/07 14:36:57;;;;;;;4.20;2.38;;;;;;;;;;5061536;28;20029;-73
2023/07/07 14:39:27;;;;;;;3.78;2.20;;;;;;;;;;5049035;28;20060;-73
2023/07/07 14:41:57;;;;;;;3.28;2.00;;;;;;;;;;5050215;28;20079;-72
2023/07/07 14:44:40;;;;;;;3.70;2.13;;;;;;;;;;5050290;28;20095;-74